sensor_id;sensor_type;location;lat;lon;timestamp;temperature;humidity
21502;DHT22;27639;48.674;9.242;2023-12-20T00:00:54;9.40;61.50
21502;DHT22;27639;48.674;9.242;2023-12-20T00:03:19;9.40;61.40
21502;DHT22;27639;48.674;9.242;2023-12-20T00:05:46;9.50;61.30
21502;DHT22;27639;48.674;9.242;2023-12-20T00:08:12;9.60;61.30
21502;DHT22;27639;48.674;9.242;2023-12-20T00:10:37;9.60;61.30
21502;DHT22;27639;48.674;9.242;2023-12-20T00:13:03;9.60;61.30
21502;DHT22;27639;48.674;9.242;2023-12-20T00:15:29;9.50;61.30
21502;DHT22;27639;48.674;9.242;2023-12-20T00:17:54;9.60;61.30
21502;DHT22;27639;48.674;9.242;2023-12-20T00:20:20;9.60;61.10
21502;DHT22;27639;48.674;9.242;2023-12-20T00:22:45;9.70;61.10
21502;DHT22;27639;48.674;9.242;2023-12-20T00:25:11;9.70;61.00
21502;DHT22;27639;48.674;9.242;2023-12-20T00:27:37;9.70;60.60
21502;DHT22;27639;48.674;9.242;2023-12-20T00:30:02;9.80;60.70
21502;DHT22;27639;48.674;9.242;2023-12-20T00:32:28;9.80;60.60
21502;DHT22;27639;48.674;9.242;2023-12-20T00:34:54;9.80;60.60
21502;DHT22;27639;48.674;9.242;2023-12-20T00:37:19;9.70;60.40
21502;DHT22;27639;48.674;9.242;2023-12-20T00:39:45;9.80;60.60
21502;DHT22;27639;48.674;9.242;2023-12-20T00:42:10;9.70;60.40
21502;DHT22;27639;48.674;9.242;2023-12-20T00:44:36;9.70;60.50
21502;DHT22;27639;48.674;9.242;2023-12-20T00:47:01;9.70;60.50
21502;DHT22;27639;48.674;9.242;2023-12-20T00:49:27;9.70;60.60
21502;DHT22;27639;48.674;9.242;2023-12-20T00:51:53;9.60;60.50
21502;DHT22;27639;48.674;9.242;2023-12-20T00:54:18;9.60;60.50
21502;DHT22;27639;48.674;9.242;2023-12-20T00:56:44;9.60;60.50
21502;DHT22;27639;48.674;9.242;2023-12-20T00:59:09;9.60;60.70
21502;DHT22;27639;48.674;9.242;2023-12-20T01:01:36;9.60;60.70
21502;DHT22;27639;48.674;9.242;2023-12-20T01:04:01;9.70;60.70
21502;DHT22;27639;48.674;9.242;2023-12-20T01:06:27;9.60;60.70
21502;DHT22;27639;48.674;9.242;2023-12-20T01:08:52;9.60;60.70
21502;DHT22;27639;48.674;9.242;2023-12-20T01:11:18;9.60;60.80
21502;DHT22;27639;48.674;9.242;2023-12-20T01:13:43;9.60;61.00
21502;DHT22;27639;48.674;9.242;2023-12-20T01:16:11;9.60;61.20
21502;DHT22;27639;48.674;9.242;2023-12-20T01:18:37;9.60;61.10
21502;DHT22;27639;48.674;9.242;2023-12-20T01:21:04;9.60;61.10
21502;DHT22;27639;48.674;9.242;2023-12-20T01:23:30;9.50;61.50
21502;DHT22;27639;48.674;9.242;2023-12-20T01:25:56;9.40;61.90
21502;DHT22;27639;48.674;9.242;2023-12-20T01:28:21;9.50;62.00
21502;DHT22;27639;48.674;9.242;2023-12-20T01:30:47;9.50;62.10
21502;DHT22;27639;48.674;9.242;2023-12-20T01:33:13;9.40;62.40
21502;DHT22;27639;48.674;9.242;2023-12-20T01:35:39;9.40;62.70
21502;DHT22;27639;48.674;9.242;2023-12-20T01:38:04;9.30;63.20
21502;DHT22;27639;48.674;9.242;2023-12-20T01:40:30;9.30;63.60
21502;DHT22;27639;48.674;9.242;2023-12-20T01:43:06;9.20;63.90
21502;DHT22;27639;48.674;9.242;2023-12-20T01:45:32;9.20;64.00
21502;DHT22;27639;48.674;9.242;2023-12-20T01:47:58;9.20;64.50
21502;DHT22;27639;48.674;9.242;2023-12-20T01:50:25;9.20;65.40
21502;DHT22;27639;48.674;9.242;2023-12-20T01:52:52;9.20;64.80
21502;DHT22;27639;48.674;9.242;2023-12-20T01:55:19;9.20;65.00
21502;DHT22;27639;48.674;9.242;2023-12-20T01:57:45;9.10;65.20
21502;DHT22;27639;48.674;9.242;2023-12-20T02:00:13;9.10;65.50
21502;DHT22;27639;48.674;9.242;2023-12-20T02:02:40;9.10;65.60
21502;DHT22;27639;48.674;9.242;2023-12-20T02:05:07;9.10;65.70
21502;DHT22;27639;48.674;9.242;2023-12-20T02:07:33;9.10;65.70
21502;DHT22;27639;48.674;9.242;2023-12-20T02:10:03;9.10;66.10
21502;DHT22;27639;48.674;9.242;2023-12-20T02:12:30;9.10;66.10
21502;DHT22;27639;48.674;9.242;2023-12-20T02:14:55;9.10;66.10
21502;DHT22;27639;48.674;9.242;2023-12-20T02:17:22;9.10;66.10
21502;DHT22;27639;48.674;9.242;2023-12-20T02:19:49;9.10;66.10
21502;DHT22;27639;48.674;9.242;2023-12-20T02:22:14;9.10;66.10
21502;DHT22;27639;48.674;9.242;2023-12-20T02:24:40;9.10;66.10
21502;DHT22;27639;48.674;9.242;2023-12-20T02:27:07;9.10;66.10
21502;DHT22;27639;48.674;9.242;2023-12-20T02:29:34;9.10;66.10
21502;DHT22;27639;48.674;9.242;2023-12-20T02:31:59;9.10;66.10
21502;DHT22;27639;48.674;9.242;2023-12-20T02:34:25;9.10;66.10
21502;DHT22;27639;48.674;9.242;2023-12-20T02:36:50;9.10;66.20
21502;DHT22;27639;48.674;9.242;2023-12-20T02:39:17;9.10;66.10
21502;DHT22;27639;48.674;9.242;2023-12-20T02:41:43;9.10;66.10
21502;DHT22;27639;48.674;9.242;2023-12-20T02:44:09;9.00;66.60
21502;DHT22;27639;48.674;9.242;2023-12-20T02:46:34;9.00;66.60
21502;DHT22;27639;48.674;9.242;2023-12-20T02:49:00;9.10;66.10
21502;DHT22;27639;48.674;9.242;2023-12-20T02:51:25;9.10;66.10
21502;DHT22;27639;48.674;9.242;2023-12-20T02:53:51;9.10;66.20
21502;DHT22;27639;48.674;9.242;2023-12-20T02:56:17;9.10;66.60
21502;DHT22;27639;48.674;9.242;2023-12-20T02:58:42;9.00;66.60
21502;DHT22;27639;48.674;9.242;2023-12-20T03:01:08;9.10;66.60
21502;DHT22;27639;48.674;9.242;2023-12-20T03:03:34;9.10;66.70
21502;DHT22;27639;48.674;9.242;2023-12-20T03:05:59;9.10;66.20
21502;DHT22;27639;48.674;9.242;2023-12-20T03:08:25;9.10;66.10
21502;DHT22;27639;48.674;9.242;2023-12-20T03:10:50;9.10;66.50
21502;DHT22;27639;48.674;9.242;2023-12-20T03:13:16;9.10;66.10
21502;DHT22;27639;48.674;9.242;2023-12-20T03:15:42;9.10;66.10
21502;DHT22;27639;48.674;9.242;2023-12-20T03:18:07;9.10;66.50
21502;DHT22;27639;48.674;9.242;2023-12-20T03:20:33;9.10;66.10
21502;DHT22;27639;48.674;9.242;2023-12-20T03:23:00;9.20;66.20
21502;DHT22;27639;48.674;9.242;2023-12-20T03:25:26;9.20;66.20
21502;DHT22;27639;48.674;9.242;2023-12-20T03:27:52;9.20;66.20
21502;DHT22;27639;48.674;9.242;2023-12-20T03:30:19;9.20;66.20
21502;DHT22;27639;48.674;9.242;2023-12-20T03:32:45;9.20;66.20
21502;DHT22;27639;48.674;9.242;2023-12-20T03:35:10;9.20;66.20
21502;DHT22;27639;48.674;9.242;2023-12-20T03:37:36;9.20;66.20
21502;DHT22;27639;48.674;9.242;2023-12-20T03:40:02;9.20;66.20
21502;DHT22;27639;48.674;9.242;2023-12-20T03:42:28;9.20;66.20
21502;DHT22;27639;48.674;9.242;2023-12-20T03:44:53;9.20;66.20
21502;DHT22;27639;48.674;9.242;2023-12-20T03:47:19;9.20;66.20
21502;DHT22;27639;48.674;9.242;2023-12-20T03:49:44;9.20;66.20
21502;DHT22;27639;48.674;9.242;2023-12-20T03:52:10;9.30;66.30
21502;DHT22;27639;48.674;9.242;2023-12-20T03:54:35;9.30;66.30
21502;DHT22;27639;48.674;9.242;2023-12-20T03:57:01;9.30;66.30
21502;DHT22;27639;48.674;9.242;2023-12-20T03:59:27;9.30;66.30
21502;DHT22;27639;48.674;9.242;2023-12-20T04:01:52;9.30;66.30
21502;DHT22;27639;48.674;9.242;2023-12-20T04:04:18;9.30;66.30
21502;DHT22;27639;48.674;9.242;2023-12-20T04:06:44;9.40;66.40
21502;DHT22;27639;48.674;9.242;2023-12-20T04:09:10;9.30;66.30
21502;DHT22;27639;48.674;9.242;2023-12-20T04:11:36;9.30;66.30
21502;DHT22;27639;48.674;9.242;2023-12-20T04:14:02;9.30;66.30
21502;DHT22;27639;48.674;9.242;2023-12-20T04:16:27;9.30;66.30
21502;DHT22;27639;48.674;9.242;2023-12-20T04:18:53;9.30;66.30
21502;DHT22;27639;48.674;9.242;2023-12-20T04:21:18;9.30;66.30
21502;DHT22;27639;48.674;9.242;2023-12-20T04:23:44;9.30;66.30
21502;DHT22;27639;48.674;9.242;2023-12-20T04:26:10;9.30;66.30
21502;DHT22;27639;48.674;9.242;2023-12-20T04:28:35;9.30;66.30
21502;DHT22;27639;48.674;9.242;2023-12-20T04:31:01;9.30;66.30
21502;DHT22;27639;48.674;9.242;2023-12-20T04:33:26;9.30;66.30
21502;DHT22;27639;48.674;9.242;2023-12-20T04:35:52;9.30;66.30
21502;DHT22;27639;48.674;9.242;2023-12-20T04:38:17;9.20;66.20
21502;DHT22;27639;48.674;9.242;2023-12-20T04:40:43;9.20;66.20
21502;DHT22;27639;48.674;9.242;2023-12-20T04:43:09;9.20;66.20
21502;DHT22;27639;48.674;9.242;2023-12-20T04:45:35;9.20;66.20
21502;DHT22;27639;48.674;9.242;2023-12-20T04:48:01;9.20;66.20
21502;DHT22;27639;48.674;9.242;2023-12-20T04:50:26;9.20;66.10
21502;DHT22;27639;48.674;9.242;2023-12-20T04:52:52;9.20;66.20
21502;DHT22;27639;48.674;9.242;2023-12-20T04:55:18;9.20;66.20
21502;DHT22;27639;48.674;9.242;2023-12-20T04:57:43;9.20;66.20
21502;DHT22;27639;48.674;9.242;2023-12-20T05:00:09;9.20;66.10
21502;DHT22;27639;48.674;9.242;2023-12-20T05:02:36;9.20;66.00
21502;DHT22;27639;48.674;9.242;2023-12-20T05:05:01;9.20;65.90
21502;DHT22;27639;48.674;9.242;2023-12-20T05:07:27;9.20;65.80
21502;DHT22;27639;48.674;9.242;2023-12-20T05:09:52;9.10;66.00
21502;DHT22;27639;48.674;9.242;2023-12-20T05:12:19;9.20;65.90
21502;DHT22;27639;48.674;9.242;2023-12-20T05:14:44;9.20;65.90
21502;DHT22;27639;48.674;9.242;2023-12-20T05:17:10;9.20;66.00
21502;DHT22;27639;48.674;9.242;2023-12-20T05:19:35;9.10;65.80
21502;DHT22;27639;48.674;9.242;2023-12-20T05:22:01;9.20;65.90
21502;DHT22;27639;48.674;9.242;2023-12-20T05:24:27;9.20;65.90
21502;DHT22;27639;48.674;9.242;2023-12-20T05:26:53;9.10;65.90
21502;DHT22;27639;48.674;9.242;2023-12-20T05:29:19;9.10;65.90
21502;DHT22;27639;48.674;9.242;2023-12-20T05:31:44;9.10;65.90
21502;DHT22;27639;48.674;9.242;2023-12-20T05:34:10;9.10;66.10
21502;DHT22;27639;48.674;9.242;2023-12-20T05:36:36;9.10;66.00
21502;DHT22;27639;48.674;9.242;2023-12-20T05:39:02;9.00;66.00
21502;DHT22;27639;48.674;9.242;2023-12-20T05:41:30;9.00;66.00
21502;DHT22;27639;48.674;9.242;2023-12-20T05:43:55;8.90;65.90
21502;DHT22;27639;48.674;9.242;2023-12-20T05:46:23;8.90;65.90
21502;DHT22;27639;48.674;9.242;2023-12-20T05:48:49;8.90;65.90
21502;DHT22;27639;48.674;9.242;2023-12-20T05:51:14;8.90;65.90
21502;DHT22;27639;48.674;9.242;2023-12-20T05:53:40;8.90;65.90
21502;DHT22;27639;48.674;9.242;2023-12-20T05:56:06;8.90;65.90
21502;DHT22;27639;48.674;9.242;2023-12-20T05:58:32;8.90;65.90
21502;DHT22;27639;48.674;9.242;2023-12-20T06:00:59;8.80;65.80
21502;DHT22;27639;48.674;9.242;2023-12-20T06:03:24;8.80;66.00
21502;DHT22;27639;48.674;9.242;2023-12-20T06:05:50;8.80;65.80
21502;DHT22;27639;48.674;9.242;2023-12-20T06:08:15;8.80;66.10
21502;DHT22;27639;48.674;9.242;2023-12-20T06:10:41;8.80;66.40
21502;DHT22;27639;48.674;9.242;2023-12-20T06:13:06;8.70;66.50
21502;DHT22;27639;48.674;9.242;2023-12-20T06:15:32;8.70;66.70
21502;DHT22;27639;48.674;9.242;2023-12-20T06:17:58;8.70;66.70
21502;DHT22;27639;48.674;9.242;2023-12-20T06:20:23;8.70;66.70
21502;DHT22;27639;48.674;9.242;2023-12-20T06:22:50;8.60;66.60
21502;DHT22;27639;48.674;9.242;2023-12-20T06:25:16;8.70;66.70
21502;DHT22;27639;48.674;9.242;2023-12-20T06:27:41;8.70;66.70
21502;DHT22;27639;48.674;9.242;2023-12-20T06:30:08;8.70;66.70
21502;DHT22;27639;48.674;9.242;2023-12-20T06:32:36;8.70;66.70
21502;DHT22;27639;48.674;9.242;2023-12-20T06:35:03;8.70;66.70
21502;DHT22;27639;48.674;9.242;2023-12-20T06:37:30;8.70;66.70
21502;DHT22;27639;48.674;9.242;2023-12-20T06:39:56;8.70;66.70
21502;DHT22;27639;48.674;9.242;2023-12-20T06:42:22;8.70;66.90
21502;DHT22;27639;48.674;9.242;2023-12-20T06:44:48;8.60;66.90
21502;DHT22;27639;48.674;9.242;2023-12-20T06:47:13;8.60;67.10
21502;DHT22;27639;48.674;9.242;2023-12-20T06:49:40;8.60;67.20
21502;DHT22;27639;48.674;9.242;2023-12-20T06:52:05;8.60;67.00
21502;DHT22;27639;48.674;9.242;2023-12-20T06:54:31;8.70;66.90
21502;DHT22;27639;48.674;9.242;2023-12-20T06:56:59;8.70;66.90
21502;DHT22;27639;48.674;9.242;2023-12-20T06:59:25;8.70;66.90
21502;DHT22;27639;48.674;9.242;2023-12-20T07:01:51;8.70;67.10
21502;DHT22;27639;48.674;9.242;2023-12-20T07:04:16;8.70;67.10
21502;DHT22;27639;48.674;9.242;2023-12-20T07:06:50;8.70;66.90
21502;DHT22;27639;48.674;9.242;2023-12-20T07:09:22;8.80;67.10
21502;DHT22;27639;48.674;9.242;2023-12-20T07:11:48;8.80;67.10
21502;DHT22;27639;48.674;9.242;2023-12-20T07:14:14;8.70;67.10
21502;DHT22;27639;48.674;9.242;2023-12-20T07:16:40;8.80;67.10
21502;DHT22;27639;48.674;9.242;2023-12-20T07:19:06;8.80;67.00
21502;DHT22;27639;48.674;9.242;2023-12-20T07:21:31;8.80;67.00
21502;DHT22;27639;48.674;9.242;2023-12-20T07:23:57;8.80;66.80
21502;DHT22;27639;48.674;9.242;2023-12-20T07:26:23;8.80;66.80
21502;DHT22;27639;48.674;9.242;2023-12-20T07:28:49;8.90;66.90
21502;DHT22;27639;48.674;9.242;2023-12-20T07:31:17;8.90;66.90
21502;DHT22;27639;48.674;9.242;2023-12-20T07:33:43;8.90;66.90
21502;DHT22;27639;48.674;9.242;2023-12-20T07:36:09;8.90;66.90
21502;DHT22;27639;48.674;9.242;2023-12-20T07:38:35;8.90;66.90
21502;DHT22;27639;48.674;9.242;2023-12-20T07:41:00;8.90;66.80
21502;DHT22;27639;48.674;9.242;2023-12-20T07:43:26;8.90;66.90
21502;DHT22;27639;48.674;9.242;2023-12-20T07:45:52;8.90;66.90
21502;DHT22;27639;48.674;9.242;2023-12-20T07:48:17;8.90;66.90
21502;DHT22;27639;48.674;9.242;2023-12-20T07:50:43;8.80;67.00
21502;DHT22;27639;48.674;9.242;2023-12-20T07:53:08;8.90;66.90
21502;DHT22;27639;48.674;9.242;2023-12-20T07:55:34;8.90;66.90
21502;DHT22;27639;48.674;9.242;2023-12-20T07:58:00;9.00;66.90
21502;DHT22;27639;48.674;9.242;2023-12-20T08:00:26;9.00;66.80
21502;DHT22;27639;48.674;9.242;2023-12-20T08:02:51;9.10;66.70
21502;DHT22;27639;48.674;9.242;2023-12-20T08:05:17;9.00;66.60
21502;DHT22;27639;48.674;9.242;2023-12-20T08:07:43;9.00;66.60
21502;DHT22;27639;48.674;9.242;2023-12-20T08:10:09;9.00;66.60
21502;DHT22;27639;48.674;9.242;2023-12-20T08:12:34;9.00;66.70
21502;DHT22;27639;48.674;9.242;2023-12-20T08:15:01;9.00;66.80
21502;DHT22;27639;48.674;9.242;2023-12-20T08:17:26;9.00;66.80
21502;DHT22;27639;48.674;9.242;2023-12-20T08:19:52;9.10;66.90
21502;DHT22;27639;48.674;9.242;2023-12-20T08:22:17;9.00;67.00
21502;DHT22;27639;48.674;9.242;2023-12-20T08:24:43;8.90;66.90
21502;DHT22;27639;48.674;9.242;2023-12-20T08:27:08;8.90;66.90
21502;DHT22;27639;48.674;9.242;2023-12-20T08:29:35;8.80;66.80
21502;DHT22;27639;48.674;9.242;2023-12-20T08:32:01;8.80;66.80
21502;DHT22;27639;48.674;9.242;2023-12-20T08:34:27;8.80;66.80
21502;DHT22;27639;48.674;9.242;2023-12-20T08:36:52;8.80;66.80
21502;DHT22;27639;48.674;9.242;2023-12-20T08:39:18;8.80;66.80
21502;DHT22;27639;48.674;9.242;2023-12-20T08:41:44;8.70;66.70
21502;DHT22;27639;48.674;9.242;2023-12-20T08:44:09;8.70;66.90
21502;DHT22;27639;48.674;9.242;2023-12-20T08:46:35;8.70;66.90
21502;DHT22;27639;48.674;9.242;2023-12-20T08:49:01;8.70;67.10
21502;DHT22;27639;48.674;9.242;2023-12-20T08:51:27;8.60;67.20
21502;DHT22;27639;48.674;9.242;2023-12-20T08:53:53;8.60;67.20
21502;DHT22;27639;48.674;9.242;2023-12-20T08:56:19;8.60;67.20
21502;DHT22;27639;48.674;9.242;2023-12-20T08:58:45;8.70;67.10
21502;DHT22;27639;48.674;9.242;2023-12-20T09:01:11;8.70;67.10
21502;DHT22;27639;48.674;9.242;2023-12-20T09:03:36;8.70;67.20
21502;DHT22;27639;48.674;9.242;2023-12-20T09:06:02;8.70;67.20
21502;DHT22;27639;48.674;9.242;2023-12-20T09:08:28;8.60;67.20
21502;DHT22;27639;48.674;9.242;2023-12-20T09:10:53;8.60;67.20
21502;DHT22;27639;48.674;9.242;2023-12-20T09:13:19;8.60;67.40
21502;DHT22;27639;48.674;9.242;2023-12-20T09:15:46;8.60;67.40
21502;DHT22;27639;48.674;9.242;2023-12-20T09:18:12;8.60;67.50
21502;DHT22;27639;48.674;9.242;2023-12-20T09:20:37;8.70;67.40
21502;DHT22;27639;48.674;9.242;2023-12-20T09:23:03;8.80;67.40
21502;DHT22;27639;48.674;9.242;2023-12-20T09:25:28;8.80;67.20
21502;DHT22;27639;48.674;9.242;2023-12-20T09:27:55;8.80;67.10
21502;DHT22;27639;48.674;9.242;2023-12-20T09:30:21;8.80;66.80
21502;DHT22;27639;48.674;9.242;2023-12-20T09:32:46;8.80;66.30
21502;DHT22;27639;48.674;9.242;2023-12-20T09:35:12;8.70;65.70
21502;DHT22;27639;48.674;9.242;2023-12-20T09:37:37;8.80;65.80
21502;DHT22;27639;48.674;9.242;2023-12-20T09:40:04;8.80;65.80
21502;DHT22;27639;48.674;9.242;2023-12-20T09:45:14;8.80;65.40
21502;DHT22;27639;48.674;9.242;2023-12-20T09:47:40;8.80;65.20
21502;DHT22;27639;48.674;9.242;2023-12-20T09:50:07;8.70;64.80
21502;DHT22;27639;48.674;9.242;2023-12-20T09:52:34;8.80;64.70
21502;DHT22;27639;48.674;9.242;2023-12-20T09:55:01;8.80;64.70
21502;DHT22;27639;48.674;9.242;2023-12-20T09:57:31;8.80;64.60
21502;DHT22;27639;48.674;9.242;2023-12-20T09:59:57;8.80;64.60
21502;DHT22;27639;48.674;9.242;2023-12-20T10:02:25;8.80;64.50
21502;DHT22;27639;48.674;9.242;2023-12-20T10:04:53;8.80;64.50
21502;DHT22;27639;48.674;9.242;2023-12-20T10:07:19;8.90;64.40
21502;DHT22;27639;48.674;9.242;2023-12-20T10:09:45;8.90;63.70
21502;DHT22;27639;48.674;9.242;2023-12-20T10:12:12;8.80;63.60
21502;DHT22;27639;48.674;9.242;2023-12-20T10:14:39;8.90;63.70
21502;DHT22;27639;48.674;9.242;2023-12-20T10:17:05;9.00;63.70
21502;DHT22;27639;48.674;9.242;2023-12-20T10:19:32;9.00;63.40
21502;DHT22;27639;48.674;9.242;2023-12-20T10:21:59;9.00;63.20
21502;DHT22;27639;48.674;9.242;2023-12-20T10:24:25;9.00;63.00
21502;DHT22;27639;48.674;9.242;2023-12-20T10:27:06;9.00;63.00
21502;DHT22;27639;48.674;9.242;2023-12-20T10:29:36;9.00;62.50
21502;DHT22;27639;48.674;9.242;2023-12-20T10:32:24;9.00;62.70
21502;DHT22;27639;48.674;9.242;2023-12-20T10:34:51;8.90;62.10
21502;DHT22;27639;48.674;9.242;2023-12-20T10:37:17;8.90;62.20
21502;DHT22;27639;48.674;9.242;2023-12-20T10:39:43;9.00;62.10
21502;DHT22;27639;48.674;9.242;2023-12-20T10:42:12;9.00;62.20
21502;DHT22;27639;48.674;9.242;2023-12-20T10:44:38;9.10;61.60
21502;DHT22;27639;48.674;9.242;2023-12-20T10:47:05;9.10;61.40
21502;DHT22;27639;48.674;9.242;2023-12-20T10:49:32;9.20;61.00
21502;DHT22;27639;48.674;9.242;2023-12-20T10:52:02;9.30;60.80
21502;DHT22;27639;48.674;9.242;2023-12-20T10:54:29;9.40;60.30
21502;DHT22;27639;48.674;9.242;2023-12-20T10:56:57;9.40;58.70
21502;DHT22;27639;48.674;9.242;2023-12-20T10:59:23;9.40;59.00
21502;DHT22;27639;48.674;9.242;2023-12-20T11:01:50;9.30;57.80
21502;DHT22;27639;48.674;9.242;2023-12-20T11:04:22;9.40;58.10
21502;DHT22;27639;48.674;9.242;2023-12-20T11:06:53;9.50;58.00
21502;DHT22;27639;48.674;9.242;2023-12-20T11:09:25;9.60;58.00
21502;DHT22;27639;48.674;9.242;2023-12-20T11:12:18;9.60;57.90
21502;DHT22;27639;48.674;9.242;2023-12-20T11:14:53;9.60;57.50
21502;DHT22;27639;48.674;9.242;2023-12-20T11:17:21;9.60;57.60
21502;DHT22;27639;48.674;9.242;2023-12-20T11:22:25;9.50;56.90
21502;DHT22;27639;48.674;9.242;2023-12-20T11:24:52;9.50;57.40
21502;DHT22;27639;48.674;9.242;2023-12-20T11:27:19;9.50;57.40
21502;DHT22;27639;48.674;9.242;2023-12-20T11:29:58;9.30;56.60
21502;DHT22;27639;48.674;9.242;2023-12-20T11:37:38;9.30;56.00
21502;DHT22;27639;48.674;9.242;2023-12-20T11:40:07;9.20;56.30
21502;DHT22;27639;48.674;9.242;2023-12-20T11:42:44;9.30;56.10
21502;DHT22;27639;48.674;9.242;2023-12-20T11:45:10;9.20;55.70
21502;DHT22;27639;48.674;9.242;2023-12-20T11:47:36;9.20;56.00
21502;DHT22;27639;48.674;9.242;2023-12-20T11:50:02;9.20;56.20
21502;DHT22;27639;48.674;9.242;2023-12-20T11:52:29;9.30;56.30
21502;DHT22;27639;48.674;9.242;2023-12-20T11:54:55;9.30;56.00
21502;DHT22;27639;48.674;9.242;2023-12-20T11:57:21;9.40;56.10
21502;DHT22;27639;48.674;9.242;2023-12-20T11:59:46;9.40;56.20
21502;DHT22;27639;48.674;9.242;2023-12-20T12:02:12;9.40;56.00
21502;DHT22;27639;48.674;9.242;2023-12-20T12:04:41;9.40;56.00
21502;DHT22;27639;48.674;9.242;2023-12-20T12:07:07;9.40;55.70
21502;DHT22;27639;48.674;9.242;2023-12-20T12:09:33;9.40;55.60
21502;DHT22;27639;48.674;9.242;2023-12-20T12:11:58;9.40;55.50
21502;DHT22;27639;48.674;9.242;2023-12-20T12:14:24;9.40;55.50
21502;DHT22;27639;48.674;9.242;2023-12-20T12:16:50;9.40;55.50
21502;DHT22;27639;48.674;9.242;2023-12-20T12:19:22;9.40;55.50
21502;DHT22;27639;48.674;9.242;2023-12-20T12:21:49;9.30;55.40
21502;DHT22;27639;48.674;9.242;2023-12-20T12:24:14;9.40;55.50
21502;DHT22;27639;48.674;9.242;2023-12-20T12:26:40;9.30;55.20
21502;DHT22;27639;48.674;9.242;2023-12-20T12:29:08;9.30;55.20
21502;DHT22;27639;48.674;9.242;2023-12-20T12:31:35;9.30;55.30
21502;DHT22;27639;48.674;9.242;2023-12-20T12:34:01;9.20;55.30
21502;DHT22;27639;48.674;9.242;2023-12-20T12:36:28;9.10;55.30
21502;DHT22;27639;48.674;9.242;2023-12-20T12:38:56;9.20;55.30
21502;DHT22;27639;48.674;9.242;2023-12-20T12:41:23;9.20;55.50
21502;DHT22;27639;48.674;9.242;2023-12-20T12:43:48;9.20;55.30
21502;DHT22;27639;48.674;9.242;2023-12-20T12:46:14;9.20;55.30
21502;DHT22;27639;48.674;9.242;2023-12-20T12:48:40;9.20;55.30
21502;DHT22;27639;48.674;9.242;2023-12-20T12:51:05;9.20;55.30
21502;DHT22;27639;48.674;9.242;2023-12-20T12:53:32;9.20;54.80
21502;DHT22;27639;48.674;9.242;2023-12-20T12:55:58;9.20;55.00
21502;DHT22;27639;48.674;9.242;2023-12-20T12:58:23;9.20;54.60
21502;DHT22;27639;48.674;9.242;2023-12-20T13:00:50;9.20;54.80
21502;DHT22;27639;48.674;9.242;2023-12-20T13:03:16;9.10;54.60
21502;DHT22;27639;48.674;9.242;2023-12-20T13:05:42;9.10;54.90
21502;DHT22;27639;48.674;9.242;2023-12-20T13:08:07;9.20;55.00
21502;DHT22;27639;48.674;9.242;2023-12-20T13:10:34;9.30;55.00
21502;DHT22;27639;48.674;9.242;2023-12-20T13:13:00;9.30;55.00
21502;DHT22;27639;48.674;9.242;2023-12-20T13:15:25;9.30;54.60
21502;DHT22;27639;48.674;9.242;2023-12-20T13:17:51;9.20;54.30
21502;DHT22;27639;48.674;9.242;2023-12-20T13:20:17;9.20;54.50
21502;DHT22;27639;48.674;9.242;2023-12-20T13:22:42;9.20;54.70
21502;DHT22;27639;48.674;9.242;2023-12-20T13:25:08;9.30;54.90
21502;DHT22;27639;48.674;9.242;2023-12-20T13:27:33;9.20;54.60
21502;DHT22;27639;48.674;9.242;2023-12-20T13:29:59;9.20;54.60
21502;DHT22;27639;48.674;9.242;2023-12-20T13:32:25;9.20;54.80
21502;DHT22;27639;48.674;9.242;2023-12-20T13:34:51;9.30;54.80
21502;DHT22;27639;48.674;9.242;2023-12-20T13:37:16;9.30;54.90
21502;DHT22;27639;48.674;9.242;2023-12-20T13:39:42;9.40;55.00
21502;DHT22;27639;48.674;9.242;2023-12-20T13:42:07;9.40;54.90
21502;DHT22;27639;48.674;9.242;2023-12-20T13:44:33;9.40;54.90
21502;DHT22;27639;48.674;9.242;2023-12-20T13:46:59;9.40;55.00
21502;DHT22;27639;48.674;9.242;2023-12-20T13:49:24;9.40;54.90
21502;DHT22;27639;48.674;9.242;2023-12-20T13:51:51;9.40;54.90
21502;DHT22;27639;48.674;9.242;2023-12-20T13:54:16;9.40;54.90
21502;DHT22;27639;48.674;9.242;2023-12-20T13:56:45;9.30;54.90
21502;DHT22;27639;48.674;9.242;2023-12-20T13:59:11;9.30;55.00
21502;DHT22;27639;48.674;9.242;2023-12-20T14:01:38;9.40;55.10
21502;DHT22;27639;48.674;9.242;2023-12-20T14:04:03;9.40;55.10
21502;DHT22;27639;48.674;9.242;2023-12-20T14:06:29;9.40;55.00
21502;DHT22;27639;48.674;9.242;2023-12-20T14:08:55;9.40;55.00
21502;DHT22;27639;48.674;9.242;2023-12-20T14:11:20;9.40;55.10
21502;DHT22;27639;48.674;9.242;2023-12-20T14:13:46;9.40;55.00
21502;DHT22;27639;48.674;9.242;2023-12-20T14:16:11;9.30;54.90
21502;DHT22;27639;48.674;9.242;2023-12-20T14:18:38;9.40;55.10
21502;DHT22;27639;48.674;9.242;2023-12-20T14:21:05;9.30;55.00
21502;DHT22;27639;48.674;9.242;2023-12-20T14:23:31;9.30;55.10
21502;DHT22;27639;48.674;9.242;2023-12-20T14:25:59;9.30;55.10
21502;DHT22;27639;48.674;9.242;2023-12-20T14:28:25;9.30;55.00
21502;DHT22;27639;48.674;9.242;2023-12-20T14:30:51;9.30;55.10
21502;DHT22;27639;48.674;9.242;2023-12-20T14:33:16;9.30;55.10
21502;DHT22;27639;48.674;9.242;2023-12-20T14:35:42;9.30;55.10
21502;DHT22;27639;48.674;9.242;2023-12-20T14:38:09;9.30;55.20
21502;DHT22;27639;48.674;9.242;2023-12-20T14:40:35;9.20;55.10
21502;DHT22;27639;48.674;9.242;2023-12-20T14:43:00;9.20;55.20
21502;DHT22;27639;48.674;9.242;2023-12-20T14:45:29;9.10;55.30
21502;DHT22;27639;48.674;9.242;2023-12-20T14:47:55;9.20;55.30
21502;DHT22;27639;48.674;9.242;2023-12-20T14:50:21;9.10;55.50
21502;DHT22;27639;48.674;9.242;2023-12-20T14:52:47;9.20;55.50
21502;DHT22;27639;48.674;9.242;2023-12-20T14:55:13;9.10;55.60
21502;DHT22;27639;48.674;9.242;2023-12-20T14:57:38;9.10;55.80
21502;DHT22;27639;48.674;9.242;2023-12-20T15:00:05;9.10;55.90
21502;DHT22;27639;48.674;9.242;2023-12-20T15:02:30;9.10;55.90
21502;DHT22;27639;48.674;9.242;2023-12-20T15:04:57;9.10;56.10
21502;DHT22;27639;48.674;9.242;2023-12-20T15:07:22;9.00;56.20
21502;DHT22;27639;48.674;9.242;2023-12-20T15:09:48;9.00;56.40
21502;DHT22;27639;48.674;9.242;2023-12-20T15:12:14;8.90;56.50
21502;DHT22;27639;48.674;9.242;2023-12-20T15:14:40;8.80;56.90
21502;DHT22;27639;48.674;9.242;2023-12-20T15:17:06;8.80;57.10
21502;DHT22;27639;48.674;9.242;2023-12-20T15:19:32;8.70;57.30
21502;DHT22;27639;48.674;9.242;2023-12-20T15:21:57;8.70;57.30
21502;DHT22;27639;48.674;9.242;2023-12-20T15:24:25;8.60;57.60
21502;DHT22;27639;48.674;9.242;2023-12-20T15:26:54;8.60;57.60
21502;DHT22;27639;48.674;9.242;2023-12-20T15:29:20;8.70;57.70
21502;DHT22;27639;48.674;9.242;2023-12-20T15:31:46;8.60;57.90
21502;DHT22;27639;48.674;9.242;2023-12-20T15:34:13;8.50;58.30
21502;DHT22;27639;48.674;9.242;2023-12-20T15:36:39;8.40;58.40
21502;DHT22;27639;48.674;9.242;2023-12-20T15:39:05;8.40;58.50
21502;DHT22;27639;48.674;9.242;2023-12-20T15:41:30;8.50;58.60
21502;DHT22;27639;48.674;9.242;2023-12-20T15:43:56;8.40;58.60
21502;DHT22;27639;48.674;9.242;2023-12-20T15:46:22;8.30;58.70
21502;DHT22;27639;48.674;9.242;2023-12-20T15:48:47;8.30;58.70